Time;durP1;ratioP1;P1;durP2;ratioP2;P2;SDS_P1;SDS_P2;PMS_P1;PMS_P2;Temp;Humidity;BMP_temperature;BMP_pressure;BME280_temperature;BME280_humidity;BME280_pressure;Samples;Min_cycle;Max_cycle;Signal;HPM_P1;HPM_P2
2022/08/02 00:00:34;;;;;;;5.97;5.38;;;;;;;;;;10504706;28;20048;-76
2022/08/02 00:05:35;;;;;;;5.83;4.93;;;;;;;;;;10500749;28;20640;-75
2022/08/02 00:10:36;;;;;;;5.53;4.57;;;;;;;;;;10495767;28;20175;-75
2022/08/02 00:15:36;;;;;;;6.60;5.22;;;;;;;;;;10496491;28;20055;-75
2022/08/02 00:20:36;;;;;;;6.03;5.10;;;;;;;;;;10494682;28;20509;-76
2022/08/02 00:25:37;;;;;;;7.25;5.53;;;;;;;;;;10486602;28;20055;-76
2022/08/02 00:30:37;;;;;;;5.77;5.10;;;;;;;;;;10517943;28;20073;-76
2022/08/02 00:35:38;;;;;;;6.25;4.90;;;;;;;;;;10481990;28;20281;-77
2022/08/02 00:40:38;;;;;;;5.63;5.03;;;;;;;;;;10514245;28;20135;-76
2022/08/02 00:45:40;;;;;;;5.63;5.00;;;;;;;;;;10506051;28;20037;-75
2022/08/02 00:50:40;;;;;;;6.20;5.22;;;;;;;;;;10495967;28;20044;-75
2022/08/02 00:55:41;;;;;;;5.70;5.00;;;;;;;;;;10498357;28;20036;-76
2022/08/02 01:00:42;;;;;;;6.13;4.80;;;;;;;;;;10493767;28;20052;-74
2022/08/02 01:05:45;;;;;;;5.83;5.20;;;;;;;;;;10498732;28;20784;-74
2022/08/02 01:10:46;;;;;;;6.43;5.80;;;;;;;;;;10486051;28;20275;-76
2022/08/02 01:15:48;;;;;;;6.57;5.53;;;;;;;;;;10486621;28;20055;-75
2022/08/02 01:21:04;;;;;;;5.72;5.00;;;;;;;;;;10490101;28;20657;-74
2022/08/02 01:26:23;;;;;;;5.88;5.00;;;;;;;;;;10494127;28;20099;-74
2022/08/02 01:31:26;;;;;;;5.07;4.57;;;;;;;;;;10499713;28;22212;-75
2022/08/02 01:36:30;;;;;;;5.90;5.30;;;;;;;;;;10497960;28;20044;-74
2022/08/02 01:41:31;;;;;;;6.55;5.30;;;;;;;;;;10502195;28;20136;-74
2022/08/02 01:46:31;;;;;;;7.13;5.43;;;;;;;;;;10508001;28;20037;-73
2022/08/02 01:56:54;;;;;;;6.10;4.97;;;;;;;;;;10511376;28;20098;-76
2022/08/02 02:01:54;;;;;;;5.30;4.77;;;;;;;;;;10512241;28;20052;-75
2022/08/02 02:06:56;;;;;;;6.18;5.32;;;;;;;;;;10494460;28;20420;-73
2022/08/02 02:11:58;;;;;;;5.30;4.80;;;;;;;;;;10501596;28;20044;-74
2022/08/02 02:16:59;;;;;;;7.07;5.60;;;;;;;;;;10493806;28;20050;-74
2022/08/02 02:21:59;;;;;;;5.78;5.18;;;;;;;;;;10489520;28;20059;-73
2022/08/02 02:27:00;;;;;;;6.87;5.60;;;;;;;;;;10478089;28;20044;-75
2022/08/02 02:32:04;;;;;;;5.93;5.32;;;;;;;;;;10492967;28;20359;-73
2022/08/02 02:37:07;;;;;;;7.93;5.50;;;;;;;;;;10493711;28;20052;-74
2022/08/02 02:42:08;;;;;;;6.68;5.60;;;;;;;;;;10485663;28;20480;-73
2022/08/02 02:47:10;;;;;;;6.00;5.22;;;;;;;;;;10500587;28;20047;-74
2022/08/02 02:52:13;;;;;;;6.18;5.57;;;;;;;;;;10491055;28;20467;-73
2022/08/02 02:57:13;;;;;;;;;;;;;;;;;;10503793;28;20039;-74
2022/08/02 03:02:13;;;;;;;6.82;5.57;;;;;;;;;;10510241;28;19961;-74
2022/08/02 03:07:14;;;;;;;6.43;5.50;;;;;;;;;;10495517;28;20147;-73
2022/08/02 03:12:15;;;;;;;6.55;5.00;;;;;;;;;;10502251;28;20059;-76
2022/08/02 03:17:16;;;;;;;5.72;4.95;;;;;;;;;;10493163;28;20068;-73
2022/08/02 03:22:16;;;;;;;5.88;4.80;;;;;;;;;;10489056;28;20131;-74
2022/08/02 03:27:17;;;;;;;6.00;5.40;;;;;;;;;;10502619;28;20041;-73
2022/08/02 03:32:18;;;;;;;5.28;4.78;;;;;;;;;;10498347;28;20054;-74
2022/08/02 03:37:19;;;;;;;6.63;5.47;;;;;;;;;;10496540;28;20424;-74
2022/08/02 03:42:20;;;;;;;7.15;5.90;;;;;;;;;;10496832;28;20578;-75
2022/08/02 03:47:20;;;;;;;9.65;6.25;;;;;;;;;;10515316;28;20078;-74
2022/08/02 03:52:23;;;;;;;7.13;5.87;;;;;;;;;;10494928;28;20065;-73
2022/08/02 03:57:23;;;;;;;8.27;5.90;;;;;;;;;;10500194;28;20627;-76
2022/08/02 04:02:24;;;;;;;6.47;5.50;;;;;;;;;;10491599;28;20052;-76
2022/08/02 04:07:24;;;;;;;10.43;5.90;;;;;;;;;;10498430;28;20066;-75
2022/08/02 04:12:24;;;;;;;6.60;5.90;;;;;;;;;;10494575;28;20304;-74
2022/08/02 04:17:26;;;;;;;7.50;5.73;;;;;;;;;;10507728;28;20275;-74
2022/08/02 04:22:34;;;;;;;8.23;5.67;;;;;;;;;;10501200;28;20185;-76
2022/08/02 04:27:35;;;;;;;7.50;6.20;;;;;;;;;;10495361;28;20065;-74
2022/08/02 04:32:36;;;;;;;7.50;5.85;;;;;;;;;;10525871;28;20051;-76
2022/08/02 04:37:37;;;;;;;7.63;5.82;;;;;;;;;;10513316;28;20040;-74
2022/08/02 04:42:37;;;;;;;6.85;5.47;;;;;;;;;;10522276;28;20047;-73
2022/08/02 04:47:38;;;;;;;6.85;5.80;;;;;;;;;;10532777;28;20717;-76
2022/08/02 04:52:38;;;;;;;9.87;5.70;;;;;;;;;;10508611;28;20135;-73
2022/08/02 04:57:56;;;;;;;7.75;6.57;;;;;;;;;;10494649;28;20047;-74
2022/08/02 05:02:57;;;;;;;7.35;5.93;;;;;;;;;;10495048;28;20048;-73
2022/08/02 05:07:58;;;;;;;8.35;6.75;;;;;;;;;;10501322;28;20484;-73
2022/08/02 05:12:58;;;;;;;9.07;6.57;;;;;;;;;;10490581;28;20040;-74
2022/08/02 05:17:59;;;;;;;7.70;6.82;;;;;;;;;;10504273;28;20033;-73
2022/08/02 05:22:59;;;;;;;8.43;7.00;;;;;;;;;;10490565;28;20454;-73
2022/08/02 05:27:59;;;;;;;9.75;7.15;;;;;;;;;;10491348;28;20853;-72
2022/08/02 05:33:00;;;;;;;9.40;7.40;;;;;;;;;;10495192;28;20051;-76
2022/08/02 05:38:00;;;;;;;8.90;6.93;;;;;;;;;;10493321;28;20286;-72
2022/08/02 05:43:01;;;;;;;9.63;7.47;;;;;;;;;;10500006;28;20053;-73
2022/08/02 05:48:01;;;;;;;10.98;7.70;;;;;;;;;;10494944;28;20073;-74
2022/08/02 05:53:04;;;;;;;8.23;7.18;;;;;;;;;;10498359;28;20045;-73
2022/08/02 05:58:23;;;;;;;8.82;6.82;;;;;;;;;;10490029;28;20475;-74
2022/08/02 06:03:31;;;;;;;7.72;6.50;;;;;;;;;;10489092;28;20275;-75
2022/08/02 06:08:36;;;;;;;9.20;6.95;;;;;;;;;;10492906;28;20048;-73
2022/08/02 06:13:36;;;;;;;9.38;7.22;;;;;;;;;;10495274;28;20037;-73
2022/08/02 06:18:39;;;;;;;10.43;7.28;;;;;;;;;;10500925;28;20044;-72
2022/08/02 06:23:40;;;;;;;10.80;7.22;;;;;;;;;;10488811;28;20085;-73
2022/08/02 06:28:42;;;;;;;8.82;7.85;;;;;;;;;;10499545;28;20040;-72
2022/08/02 06:33:43;;;;;;;12.50;9.60;;;;;;;;;;10498778;28;20074;-69
2022/08/02 06:38:51;;;;;;;11.20;8.15;;;;;;;;;;10505755;28;20056;-72
2022/08/02 06:43:57;;;;;;;10.38;7.95;;;;;;;;;;10524756;28;20056;-74
2022/08/02 06:48:58;;;;;;;8.32;7.15;;;;;;;;;;10504192;28;20615;-74
2022/08/02 06:53:59;;;;;;;8.77;7.22;;;;;;;;;;10503585;28;20131;-74
2022/08/02 06:59:00;;;;;;;10.63;7.15;;;;;;;;;;10494141;28;20044;-75
2022/08/02 07:04:01;;;;;;;10.75;7.75;;;;;;;;;;10508267;28;20116;-73
2022/08/02 07:09:02;;;;;;;10.05;7.25;;;;;;;;;;10495783;28;20037;-74
2022/08/02 07:14:02;;;;;;;11.50;7.50;;;;;;;;;;10504414;28;20045;-75
2022/08/02 07:19:02;;;;;;;9.40;7.60;;;;;;;;;;10510129;28;20275;-74
2022/08/02 07:24:03;;;;;;;10.45;7.07;;;;;;;;;;10503248;28;20780;-76
2022/08/02 07:29:05;;;;;;;9.00;7.00;;;;;;;;;;10504551;28;20117;-74
2022/08/02 07:34:06;;;;;;;14.57;8.75;;;;;;;;;;10506656;28;20101;-77
2022/08/02 07:39:07;;;;;;;9.57;8.43;;;;;;;;;;10510399;28;20041;-75
2022/08/02 07:44:07;;;;;;;10.27;7.40;;;;;;;;;;10494035;28;20048;-76
2022/08/02 07:49:08;;;;;;;10.85;7.53;;;;;;;;;;10508247;28;20278;-79
2022/08/02 07:54:08;;;;;;;11.37;7.67;;;;;;;;;;10494466;28;20049;-75
2022/08/02 07:59:09;;;;;;;9.13;6.30;;;;;;;;;;10508789;28;20307;-75
2022/08/02 08:04:09;;;;;;;8.10;6.47;;;;;;;;;;10505441;28;20072;-73
2022/08/02 08:09:10;;;;;;;9.77;6.23;;;;;;;;;;10506899;28;20048;-76
2022/08/02 08:14:10;;;;;;;8.90;6.28;;;;;;;;;;10511263;28;20282;-76
2022/08/02 08:19:11;;;;;;;5.77;5.23;;;;;;;;;;10507868;28;20537;-77
2022/08/02 08:24:11;;;;;;;6.40;5.13;;;;;;;;;;10525789;28;20287;-76
2022/08/02 08:29:12;;;;;;;8.10;5.93;;;;;;;;;;10524538;28;20285;-76
2022/08/02 08:34:12;;;;;;;6.07;5.30;;;;;;;;;;10516751;28;20709;-77
2022/08/02 08:39:13;;;;;;;7.93;6.32;;;;;;;;;;10513494;28;20117;-77
2022/08/02 08:44:13;;;;;;;22.23;20.10;;;;;;;;;;10526531;28;20088;-76
2022/08/02 08:49:33;;;;;;;9.53;6.40;;;;;;;;;;10519208;28;20036;-75
2022/08/02 08:54:34;;;;;;;7.57;6.05;;;;;;;;;;10503793;28;20036;-76
2022/08/02 08:59:35;;;;;;;7.82;5.50;;;;;;;;;;10505991;28;20066;-78
2022/08/02 09:04:35;;;;;;;5.90;5.07;;;;;;;;;;10506072;28;20413;-76
2022/08/02 09:09:36;;;;;;;5.13;4.63;;;;;;;;;;10498922;28;20491;-75
2022/08/02 09:14:36;;;;;;;8.33;7.47;;;;;;;;;;10493940;28;20275;-76
2022/08/02 09:19:37;;;;;;;6.22;4.63;;;;;;;;;;10504228;28;20349;-74
2022/08/02 09:24:42;;;;;;;5.38;4.75;;;;;;;;;;10491140;28;20072;-74
2022/08/02 09:29:46;;;;;;;4.55;4.00;;;;;;;;;;10504575;28;20043;-75
2022/08/02 09:34:48;;;;;;;4.97;4.47;;;;;;;;;;10513354;28;20040;-74
2022/08/02 09:39:48;;;;;;;5.43;4.80;;;;;;;;;;10493317;28;20040;-74
2022/08/02 09:44:59;;;;;;;4.43;3.55;;;;;;;;;;10500299;28;20065;-76
2022/08/02 09:49:59;;;;;;;4.15;3.60;;;;;;;;;;10470340;28;20041;-75
2022/08/02 09:55:03;;;;;;;4.23;3.83;;;;;;;;;;10495279;28;20055;-75
2022/08/02 10:00:09;;;;;;;4.88;3.78;;;;;;;;;;10501812;28;20044;-76
2022/08/02 10:05:12;;;;;;;10.73;9.60;;;;;;;;;;10522773;28;20114;-74
2022/08/02 10:10:13;;;;;;;4.43;4.03;;;;;;;;;;10499219;28;20048;-76
2022/08/02 10:15:14;;;;;;;4.57;3.90;;;;;;;;;;10500582;28;20041;-74
2022/08/02 10:20:14;;;;;;;4.33;3.87;;;;;;;;;;10516790;28;20044;-74
2022/08/02 10:25:15;;;;;;;6.87;5.13;;;;;;;;;;10510641;28;20048;-74
2022/08/02 10:30:15;;;;;;;4.43;4.03;;;;;;;;;;10517510;28;20048;-74
2022/08/02 10:35:17;;;;;;;4.70;3.67;;;;;;;;;;10504371;28;20059;-75
2022/08/02 10:40:25;;;;;;;4.00;3.53;;;;;;;;;;10516131;28;20403;-79
2022/08/02 10:45:26;;;;;;;4.25;3.85;;;;;;;;;;10523015;28;20058;-79
2022/08/02 10:50:44;;;;;;;4.33;3.90;;;;;;;;;;10509655;28;20094;-74
2022/08/02 10:55:46;;;;;;;4.85;4.10;;;;;;;;;;10504773;28;21156;-75
2022/08/02 11:00:47;;;;;;;4.40;4.00;;;;;;;;;;10516662;28;20588;-74
2022/08/02 11:05:59;;;;;;;5.37;3.83;;;;;;;;;;10528554;28;20044;-74
2022/08/02 11:11:14;;;;;;;3.95;3.63;;;;;;;;;;10497404;28;20048;-73
2022/08/02 11:16:14;;;;;;;4.40;4.00;;;;;;;;;;10503828;28;20032;-75
2022/08/02 11:21:21;;;;;;;4.27;3.50;;;;;;;;;;10501782;28;20050;-73
2022/08/02 11:26:28;;;;;;;3.92;3.53;;;;;;;;;;10501438;28;20045;-72
2022/08/02 11:31:28;;;;;;;5.20;3.42;;;;;;;;;;10502610;28;20032;-72
2022/08/02 11:36:29;;;;;;;4.50;3.60;;;;;;;;;;10498381;28;20059;-72
2022/08/02 11:41:29;;;;;;;3.73;3.30;;;;;;;;;;10501992;28;20055;-72
2022/08/02 11:46:30;;;;;;;3.57;3.10;;;;;;;;;;10504465;28;20040;-71
2022/08/02 11:51:30;;;;;;;3.83;3.37;;;;;;;;;;10509294;28;20463;-72
2022/08/02 11:56:34;;;;;;;3.87;3.13;;;;;;;;;;10494949;28;20745;-73
2022/08/02 12:01:38;;;;;;;3.75;3.45;;;;;;;;;;10502902;28;20158;-71
2022/08/02 12:06:38;;;;;;;3.45;3.15;;;;;;;;;;10497198;28;20047;-71
2022/08/02 12:11:39;;;;;;;3.10;2.83;;;;;;;;;;10492137;28;20525;-71
2022/08/02 12:22:13;;;;;;;3.13;2.83;;;;;;;;;;10497810;28;20057;-72
2022/08/02 12:27:28;;;;;;;4.25;3.60;;;;;;;;;;10495517;28;20043;-72
2022/08/02 12:32:29;;;;;;;3.78;3.03;;;;;;;;;;10501524;28;20047;-73
2022/08/02 12:37:29;;;;;;;4.13;2.90;;;;;;;;;;10498388;28;20040;-71
2022/08/02 12:42:44;;;;;;;2.90;2.70;;;;;;;;;;10499170;28;20120;-72
2022/08/02 12:47:49;;;;;;;4.18;2.63;;;;;;;;;;10486724;28;20045;-72
2022/08/02 12:52:49;;;;;;;3.88;2.78;;;;;;;;;;10498905;28;20067;-71
2022/08/02 12:57:54;;;;;;;3.00;2.80;;;;;;;;;;10490962;28;20353;-72
2022/08/02 13:02:55;;;;;;;3.38;3.03;;;;;;;;;;10506950;28;20055;-77
2022/08/02 13:07:56;;;;;;;3.13;2.83;;;;;;;;;;10495989;28;20048;-72
2022/08/02 13:12:56;;;;;;;2.60;2.40;;;;;;;;;;10500542;28;20056;-72
2022/08/02 13:17:58;;;;;;;3.97;2.80;;;;;;;;;;10493708;28;20053;-73
2022/08/02 13:22:58;;;;;;;;;;;;;;;;;;10493295;28;20052;-72
2022/08/02 13:27:58;;;;;;;14.45;13.15;;;;;;;;;;10493463;28;19920;-71
2022/08/02 13:32:59;;;;;;;2.50;2.30;;;;;;;;;;10493128;28;20048;-69
2022/08/02 13:38:03;;;;;;;6.13;2.87;;;;;;;;;;10499284;28;20131;-69
2022/08/02 13:43:03;;;;;;;2.83;2.63;;;;;;;;;;10489897;28;20406;-68
2022/08/02 13:48:03;;;;;;;2.80;2.60;;;;;;;;;;10505925;28;20048;-68
2022/08/02 13:53:04;;;;;;;3.13;2.40;;;;;;;;;;10488377;28;20078;-68
2022/08/02 13:58:04;;;;;;;2.97;2.60;;;;;;;;;;10493190;28;20049;-69
2022/08/02 14:03:06;;;;;;;2.50;2.30;;;;;;;;;;10502368;28;20051;-72
2022/08/02 14:08:07;;;;;;;;;;;;;;;;;;10491937;28;20579;-71
2022/08/02 14:13:07;;;;;;;3.67;2.47;;;;;;;;;;10496037;28;19916;-71
2022/08/02 14:18:08;;;;;;;2.73;2.53;;;;;;;;;;10492829;28;20051;-71
2022/08/02 14:23:08;;;;;;;2.90;2.53;;;;;;;;;;10500759;28;20057;-71
2022/08/02 14:28:08;;;;;;;5.37;2.33;;;;;;;;;;10487958;28;20047;-72
2022/08/02 14:33:09;;;;;;;2.57;2.37;;;;;;;;;;10504872;28;20059;-72
2022/08/02 14:38:09;;;;;;;2.37;2.13;;;;;;;;;;10494165;28;20047;-71
2022/08/02 14:43:10;;;;;;;2.85;2.28;;;;;;;;;;10490950;28;20090;-72
2022/08/02 14:48:11;;;;;;;2.70;2.50;;;;;;;;;;10507214;28;20043;-76
2022/08/02 14:53:11;;;;;;;;;;;;;;;;;;10500033;28;20136;-74
2022/08/02 14:58:11;;;;;;;1.95;1.85;;;;;;;;;;10513753;28;20003;-76
2022/08/02 15:03:12;;;;;;;;;;;;;;;;;;10513370;28;20517;-76
2022/08/02 15:08:12;;;;;;;3.67;3.38;;;;;;;;;;10524716;28;19916;-75
2022/08/02 15:13:12;;;;;;;;;;;;;;;;;;10506457;28;20135;-75
2022/08/02 15:18:13;;;;;;;2.20;2.00;;;;;;;;;;10517919;28;19916;-77
2022/08/02 15:23:14;;;;;;;2.13;1.93;;;;;;;;;;10521120;28;20441;-77
2022/08/02 15:28:14;;;;;;;;;;;;;;;;;;10509451;28;20055;-76
2022/08/02 15:33:14;;;;;;;2.00;1.90;;;;;;;;;;10501192;28;20316;-76
2022/08/02 15:38:15;;;;;;;2.93;1.97;;;;;;;;;;10512902;28;20452;-76
2022/08/02 15:43:15;;;;;;;2.57;2.00;;;;;;;;;;10509224;28;20048;-76
2022/08/02 15:48:16;;;;;;;2.10;1.90;;;;;;;;;;10491973;28;20048;-74
2022/08/02 15:53:16;;;;;;;;;;;;;;;;;;10513958;28;20072;-77
2022/08/02 15:58:18;;;;;;;2.72;1.80;;;;;;;;;;10498140;28;19912;-82
2022/08/02 16:03:20;;;;;;;2.00;1.90;;;;;;;;;;10554531;28;20056;-83
2022/08/02 16:08:32;;;;;;;1.98;1.80;;;;;;;;;;10551070;28;20032;-82
2022/08/02 16:18:52;;;;;;;1.98;1.80;;;;;;;;;;10551426;28;20112;-83
2022/08/02 16:23:54;;;;;;;2.00;1.80;;;;;;;;;;10536762;28;20048;-80
2022/08/02 16:28:57;;;;;;;2.35;1.80;;;;;;;;;;10533008;28;20043;-84
2022/08/02 16:34:00;;;;;;;1.70;1.60;;;;;;;;;;10527040;28;20073;-81
2022/08/02 16:39:00;;;;;;;2.17;2.08;;;;;;;;;;10508149;28;20520;-78
2022/08/02 16:44:00;;;;;;;4.30;3.30;;;;;;;;;;10531122;28;20037;-82
2022/08/02 16:49:01;;;;;;;9.43;7.77;;;;;;;;;;10529392;28;20040;-73
2022/08/02 16:54:02;;;;;;;4.53;3.42;;;;;;;;;;10517837;28;20457;-75
2022/08/02 16:59:03;;;;;;;4.10;2.10;;;;;;;;;;10505380;28;20036;-72
2022/08/02 17:04:04;;;;;;;2.47;1.70;;;;;;;;;;10510275;28;20044;-73
2022/08/02 17:09:04;;;;;;;3.97;3.53;;;;;;;;;;10497410;28;20056;-75
2022/08/02 17:14:04;;;;;;;2.70;2.00;;;;;;;;;;10498394;28;20067;-76
2022/08/02 17:19:05;;;;;;;2.20;2.00;;;;;;;;;;10469432;28;20060;-75
2022/08/02 17:24:05;;;;;;;2.27;2.00;;;;;;;;;;10497133;28;20147;-74
2022/08/02 17:29:05;;;;;;;3.77;1.90;;;;;;;;;;10489377;28;20036;-74
2022/08/02 17:34:06;;;;;;;1.87;1.67;;;;;;;;;;10495733;28;20036;-73
2022/08/02 17:39:06;;;;;;;1.70;1.60;;;;;;;;;;10505853;28;20051;-73
2022/08/02 17:44:07;;;;;;;3.10;1.90;;;;;;;;;;10493717;28;20052;-72
2022/08/02 17:49:16;;;;;;;3.93;3.03;;;;;;;;;;10502490;28;20044;-72
2022/08/02 17:54:18;;;;;;;2.20;2.00;;;;;;;;;;10488697;28;20436;-73
2022/08/02 17:59:21;;;;;;;4.47;3.90;;;;;;;;;;10475142;28;20369;-72
2022/08/02 18:04:22;;;;;;;2.28;1.50;;;;;;;;;;10486190;28;20053;-73
2022/08/02 18:09:23;;;;;;;3.38;1.80;;;;;;;;;;10497350;28;20039;-72
2022/08/02 18:14:23;;;;;;;3.03;2.03;;;;;;;;;;10496906;28;20048;-73
2022/08/02 18:19:24;;;;;;;4.47;2.00;;;;;;;;;;10503907;28;20043;-72
2022/08/02 18:24:24;;;;;;;2.57;1.77;;;;;;;;;;10511269;28;20138;-74
2022/08/02 18:29:25;;;;;;;2.90;1.90;;;;;;;;;;10499875;28;20430;-74
2022/08/02 18:34:30;;;;;;;2.10;1.80;;;;;;;;;;10503129;28;20109;-74
2022/08/02 18:39:30;;;;;;;2.28;2.08;;;;;;;;;;10501413;28;20097;-73
2022/08/02 18:44:31;;;;;;;3.23;2.00;;;;;;;;;;10484732;28;20045;-73
2022/08/02 18:49:31;;;;;;;2.10;1.90;;;;;;;;;;10508854;28;20417;-74
2022/08/02 18:54:31;;;;;;;2.10;1.90;;;;;;;;;;10502669;28;20040;-74
2022/08/02 18:59:32;;;;;;;2.40;2.20;;;;;;;;;;10505084;28;20054;-73
2022/08/02 19:04:33;;;;;;;2.13;1.93;;;;;;;;;;10513731;28;20437;-74
2022/08/02 19:09:33;;;;;;;2.63;2.10;;;;;;;;;;10494629;28;20040;-71
2022/08/02 19:14:34;;;;;;;2.90;2.60;;;;;;;;;;10514825;28;20041;-72
2022/08/02 19:19:34;;;;;;;2.67;2.47;;;;;;;;;;10500559;28;20479;-74
2022/08/02 19:24:36;;;;;;;2.70;2.50;;;;;;;;;;10495374;28;20123;-71
2022/08/02 19:29:38;;;;;;;;;;;;;;;;;;10502953;28;20032;-73
2022/08/02 19:34:38;;;;;;;3.70;3.40;;;;;;;;;;10508631;28;19923;-71
2022/08/02 19:39:40;;;;;;;4.07;3.10;;;;;;;;;;10495625;28;20041;-73
2022/08/02 19:44:42;;;;;;;4.28;2.83;;;;;;;;;;10503022;28;20040;-76
2022/08/02 19:49:42;;;;;;;2.80;2.60;;;;;;;;;;10512540;28;20050;-73
2022/08/02 19:54:43;;;;;;;3.43;3.13;;;;;;;;;;10506820;28;20540;-75
2022/08/02 19:59:43;;;;;;;6.03;3.63;;;;;;;;;;10491905;28;20093;-75
2022/08/02 20:04:43;;;;;;;3.78;3.20;;;;;;;;;;10484374;28;20056;-74
2022/08/02 20:09:44;;;;;;;4.72;3.03;;;;;;;;;;10498252;28;20067;-74
2022/08/02 20:14:44;;;;;;;3.30;3.00;;;;;;;;;;10504433;28;20040;-74
2022/08/02 20:19:44;;;;;;;3.60;3.30;;;;;;;;;;10514557;28;20386;-74
2022/08/02 20:24:45;;;;;;;4.23;3.83;;;;;;;;;;10493097;28;20072;-75
2022/08/02 20:29:45;;;;;;;6.57;5.15;;;;;;;;;;10499301;28;20302;-74
2022/08/02 20:34:47;;;;;;;4.45;4.05;;;;;;;;;;10501712;28;20044;-74
2022/08/02 20:39:47;;;;;;;4.90;4.18;;;;;;;;;;10501814;28;20037;-73
2022/08/02 20:44:49;;;;;;;6.13;5.00;;;;;;;;;;10493430;28;20060;-75
2022/08/02 20:55:08;;;;;;;6.10;4.72;;;;;;;;;;10497710;28;20044;-75
2022/08/02 21:00:09;;;;;;;5.80;5.20;;;;;;;;;;10486109;28;20051;-75
2022/08/02 21:05:10;;;;;;;8.48;7.53;;;;;;;;;;10502880;28;20065;-74
2022/08/02 21:10:10;;;;;;;5.60;5.10;;;;;;;;;;10492518;28;20032;-75
2022/08/02 21:15:11;;;;;;;4.73;4.30;;;;;;;;;;10495690;28;20052;-74
2022/08/02 21:20:11;;;;;;;12.02;4.90;;;;;;;;;;10486663;28;20067;-75
2022/08/02 21:25:11;;;;;;;5.03;4.53;;;;;;;;;;10498214;28;20415;-77
2022/08/02 21:30:13;;;;;;;4.90;4.50;;;;;;;;;;10493370;28;20052;-75
2022/08/02 21:35:14;;;;;;;4.50;4.10;;;;;;;;;;10493039;28;20048;-76
2022/08/02 21:40:14;;;;;;;4.67;4.27;;;;;;;;;;10501307;28;20122;-77
2022/08/02 21:45:15;;;;;;;3.97;3.60;;;;;;;;;;10487810;28;20287;-76
2022/08/02 21:50:15;;;;;;;4.70;4.10;;;;;;;;;;10500696;28;20036;-75
2022/08/02 21:55:16;;;;;;;5.27;4.77;;;;;;;;;;10496564;28;20053;-75
2022/08/02 22:00:16;;;;;;;5.75;4.53;;;;;;;;;;10509062;28;20397;-75
2022/08/02 22:05:17;;;;;;;5.35;4.25;;;;;;;;;;10497286;28;20048;-76
2022/08/02 22:10:17;;;;;;;4.90;4.50;;;;;;;;;;10499778;28;20155;-75
2022/08/02 22:15:18;;;;;;;5.20;4.67;;;;;;;;;;10496189;28;20274;-75
2022/08/02 22:20:19;;;;;;;6.68;4.32;;;;;;;;;;10487887;28;20036;-77
2022/08/02 22:25:20;;;;;;;5.60;5.00;;;;;;;;;;10500298;28;20041;-76
2022/08/02 22:30:20;;;;;;;5.63;5.13;;;;;;;;;;10488355;28;20787;-76
2022/08/02 22:35:20;;;;;;;5.43;4.90;;;;;;;;;;10505390;28;20128;-77
2022/08/02 22:40:21;;;;;;;4.90;4.43;;;;;;;;;;10494355;28;20117;-76
2022/08/02 22:45:21;;;;;;;5.57;5.03;;;;;;;;;;10497528;28;20274;-74
2022/08/02 22:50:22;;;;;;;5.93;4.93;;;;;;;;;;10499940;28;20036;-74
2022/08/02 22:55:22;;;;;;;5.57;5.03;;;;;;;;;;10495781;28;20125;-74
2022/08/02 23:00:23;;;;;;;6.43;5.53;;;;;;;;;;10504014;28;20636;-75
2022/08/02 23:05:23;;;;;;;6.40;4.95;;;;;;;;;;10496412;28;20076;-75
2022/08/02 23:10:24;;;;;;;5.67;5.03;;;;;;;;;;10508162;28;20040;-74
2022/08/02 23:15:26;;;;;;;5.53;5.03;;;;;;;;;;10497576;28;20285;-74
2022/08/02 23:20:26;;;;;;;5.47;5.07;;;;;;;;;;10509421;28;20048;-76
2022/08/02 23:25:26;;;;;;;5.88;5.30;;;;;;;;;;10498137;28;20049;-76
2022/08/02 23:30:27;;;;;;;5.60;5.10;;;;;;;;;;10495719;28;20048;-76
2022/08/02 23:35:27;;;;;;;5.40;4.93;;;;;;;;;;10502761;28;20467;-77
2022/08/02 23:40:28;;;;;;;5.17;4.67;;;;;;;;;;10504689;28;21070;-73
2022/08/02 23:45:28;;;;;;;5.30;4.82;;;;;;;;;;10501152;28;20438;-75
2022/08/02 23:50:29;;;;;;;6.40;5.80;;;;;;;;;;10473939;28;20060;-76
2022/08/02 23:55:30;;;;;;;6.13;5.63;;;;;;;;;;10502838;28;20586;-76
